sensor_id;sensor_type;location;lat;lon;timestamp;pressure;altitude;pressure_sealevel;temperature;humidity
55317;BME280;41178;48.956;8.130;2023-03-20T00:02:39;100102.81;;;13.79;48.25
55317;BME280;41178;48.956;8.130;2023-03-20T00:07:40;100078.34;;;11.57;51.21
55317;BME280;41178;48.956;8.130;2023-03-20T00:12:43;100100.38;;;13.56;48.43
55317;BME280;41178;48.956;8.130;2023-03-20T00:17:46;100107.25;;;13.59;48.25
55317;BME280;41178;48.956;8.130;2023-03-20T00:22:48;100097.31;;;12.66;49.57
55317;BME280;41178;48.956;8.130;2023-03-20T00:27:50;100112.47;;;13.17;50.07
55317;BME280;41178;48.956;8.130;2023-03-20T00:32:52;100129.38;;;13.89;48.41
55317;BME280;41178;48.956;8.130;2023-03-20T00:37:55;100101.16;;;13.00;48.38
55317;BME280;41178;48.956;8.130;2023-03-20T00:42:59;100120.13;;;12.77;49.06
55317;BME280;41178;48.956;8.130;2023-03-20T00:48:02;100186.06;;;14.64;46.64
55317;BME280;41178;48.956;8.130;2023-03-20T00:53:05;100101.84;;;13.09;47.97
55317;BME280;41178;48.956;8.130;2023-03-20T00:58:08;100102.13;;;12.71;49.24
55317;BME280;41178;48.956;8.130;2023-03-20T01:08:21;100124.81;;;13.61;48.15
55317;BME280;41178;48.956;8.130;2023-03-20T01:13:24;100151.84;;;14.10;47.28
55317;BME280;41178;48.956;8.130;2023-03-20T01:18:26;100129.31;;;13.82;47.18
55317;BME280;41178;48.956;8.130;2023-03-20T01:23:28;100134.22;;;13.01;49.34
55317;BME280;41178;48.956;8.130;2023-03-20T01:28:30;100127.97;;;13.37;48.86
55317;BME280;41178;48.956;8.130;2023-03-20T01:33:31;100165.34;;;14.16;46.92
55317;BME280;41178;48.956;8.130;2023-03-20T01:38:33;100130.31;;;13.46;48.21
55317;BME280;41178;48.956;8.130;2023-03-20T01:43:35;100123.47;;;12.58;49.20
55317;BME280;41178;48.956;8.130;2023-03-20T01:53:55;100150.69;;;13.62;47.94
55317;BME280;41178;48.956;8.130;2023-03-20T01:59:12;100160.88;;;13.95;47.35
55317;BME280;41178;48.956;8.130;2023-03-20T02:04:16;100134.09;;;13.52;47.54
55317;BME280;41178;48.956;8.130;2023-03-20T02:09:21;100163.69;;;12.72;49.23
55317;BME280;41178;48.956;8.130;2023-03-20T02:14:23;100041.84;;;10.88;52.69
55317;BME280;41178;48.956;8.130;2023-03-20T02:30:41;100164.72;;;13.29;49.14
55317;BME280;41178;48.956;8.130;2023-03-20T02:41:30;100161.47;;;13.41;48.25
55317;BME280;41178;48.956;8.130;2023-03-20T02:46:57;100138.00;;;13.06;47.85
55317;BME280;41178;48.956;8.130;2023-03-20T02:57:42;100180.09;;;13.92;46.76
55317;BME280;41178;48.956;8.130;2023-03-20T03:02:50;100170.06;;;13.08;48.74
55317;BME280;41178;48.956;8.130;2023-03-20T03:07:56;100171.59;;;12.29;49.85
55317;BME280;41178;48.956;8.130;2023-03-20T03:13:02;100162.34;;;13.41;48.18
55317;BME280;41178;48.956;8.130;2023-03-20T03:18:06;100151.09;;;12.07;50.22
55317;BME280;41178;48.956;8.130;2023-03-20T03:23:39;100189.19;;;12.32;50.85
55317;BME280;41178;48.956;8.130;2023-03-20T03:28:47;100227.53;;;14.28;47.24
55317;BME280;41178;48.956;8.130;2023-03-20T03:33:54;100179.56;;;11.55;52.01
55317;BME280;41178;48.956;8.130;2023-03-20T03:44:01;100108.88;;;10.72;52.56
55317;BME280;41178;48.956;8.130;2023-03-20T03:49:07;100161.03;;;11.07;53.81
55317;BME280;41178;48.956;8.130;2023-03-20T03:54:16;100175.72;;;12.77;50.12
55317;BME280;41178;48.956;8.130;2023-03-20T03:59:40;100173.84;;;11.35;52.41
55317;BME280;41178;48.956;8.130;2023-03-20T04:04:45;100176.59;;;11.03;53.37
55317;BME280;41178;48.956;8.130;2023-03-20T04:09:48;100180.28;;;11.72;50.84
55317;BME280;41178;48.956;8.130;2023-03-20T04:14:50;100209.81;;;11.63;51.87
55317;BME280;41178;48.956;8.130;2023-03-20T04:19:51;100253.81;;;13.55;48.41
55317;BME280;41178;48.956;8.130;2023-03-20T04:24:53;100229.97;;;12.72;49.57
55317;BME280;41178;48.956;8.130;2023-03-20T04:29:54;100275.56;;;13.53;48.52
55317;BME280;41178;48.956;8.130;2023-03-20T04:34:57;100298.31;;;14.00;47.84
55317;BME280;41178;48.956;8.130;2023-03-20T04:39:58;100248.22;;;13.13;48.65
55317;BME280;41178;48.956;8.130;2023-03-20T04:45:00;100283.09;;;13.86;47.66
55317;BME280;41178;48.956;8.130;2023-03-20T04:50:01;100224.72;;;11.66;51.92
55317;BME280;41178;48.956;8.130;2023-03-20T04:55:03;100213.44;;;12.24;50.02
55317;BME280;41178;48.956;8.130;2023-03-20T05:00:06;100265.88;;;13.22;49.95
55317;BME280;41178;48.956;8.130;2023-03-20T05:05:08;100284.19;;;13.48;48.99
55317;BME280;41178;48.956;8.130;2023-03-20T05:10:10;100217.31;;;12.36;49.67
55317;BME280;41178;48.956;8.130;2023-03-20T05:15:12;100232.59;;;11.83;50.63
55317;BME280;41178;48.956;8.130;2023-03-20T05:20:14;100273.03;;;13.30;48.52
55317;BME280;41178;48.956;8.130;2023-03-20T05:25:16;100285.66;;;13.51;47.67
55317;BME280;41178;48.956;8.130;2023-03-20T05:30:18;100256.59;;;13.03;48.69
55317;BME280;41178;48.956;8.130;2023-03-20T05:35:20;100257.09;;;12.77;49.33
55317;BME280;41178;48.956;8.130;2023-03-20T05:40:21;100250.69;;;12.93;49.10
55317;BME280;41178;48.956;8.130;2023-03-20T05:45:25;100262.31;;;13.15;48.59
55317;BME280;41178;48.956;8.130;2023-03-20T05:50:27;100271.28;;;13.07;49.06
55317;BME280;41178;48.956;8.130;2023-03-20T05:55:29;100321.97;;;13.83;47.96
55317;BME280;41178;48.956;8.130;2023-03-20T06:00:30;100251.34;;;12.80;48.26
55317;BME280;41178;48.956;8.130;2023-03-20T06:05:33;100329.25;;;13.90;47.21
55317;BME280;41178;48.956;8.130;2023-03-20T06:10:35;100304.91;;;13.33;48.00
55317;BME280;41178;48.956;8.130;2023-03-20T06:15:37;100307.91;;;13.60;47.61
55317;BME280;41178;48.956;8.130;2023-03-20T06:20:39;100336.06;;;13.85;47.20
55317;BME280;41178;48.956;8.130;2023-03-20T06:25:41;100307.94;;;13.45;47.20
55317;BME280;41178;48.956;8.130;2023-03-20T06:30:43;100319.09;;;13.63;47.57
55317;BME280;41178;48.956;8.130;2023-03-20T06:35:45;100309.00;;;13.14;48.26
55317;BME280;41178;48.956;8.130;2023-03-20T06:40:47;100299.50;;;12.97;48.75
55317;BME280;41178;48.956;8.130;2023-03-20T06:45:49;100362.22;;;13.98;46.90
55317;BME280;41178;48.956;8.130;2023-03-20T06:50:51;100326.63;;;13.02;48.56
55317;BME280;41178;48.956;8.130;2023-03-20T06:55:53;100330.38;;;13.22;47.85
55317;BME280;41178;48.956;8.130;2023-03-20T07:00:55;100342.69;;;13.46;47.58
55317;BME280;41178;48.956;8.130;2023-03-20T07:05:57;100306.91;;;12.95;47.46
55317;BME280;41178;48.956;8.130;2023-03-20T07:10:59;100349.19;;;13.74;47.35
55317;BME280;41178;48.956;8.130;2023-03-20T07:16:01;100336.16;;;13.56;47.19
55317;BME280;41178;48.956;8.130;2023-03-20T07:21:06;100315.69;;;13.03;48.79
55317;BME280;41178;48.956;8.130;2023-03-20T07:26:08;100307.66;;;12.88;49.12
55317;BME280;41178;48.956;8.130;2023-03-20T07:31:21;100298.84;;;13.09;48.36
55317;BME280;41178;48.956;8.130;2023-03-20T07:36:23;100248.72;;;11.97;49.17
55317;BME280;41178;48.956;8.130;2023-03-20T07:41:25;100342.19;;;13.79;47.61
55317;BME280;41178;48.956;8.130;2023-03-20T07:46:27;100295.81;;;12.98;49.07
55317;BME280;41178;48.956;8.130;2023-03-20T07:51:29;100264.50;;;12.45;48.95
55317;BME280;41178;48.956;8.130;2023-03-20T07:56:31;100266.53;;;12.43;49.55
55317;BME280;41178;48.956;8.130;2023-03-20T08:01:33;100320.72;;;13.43;48.07
55317;BME280;41178;48.956;8.130;2023-03-20T08:06:34;100319.25;;;13.25;47.88
55317;BME280;41178;48.956;8.130;2023-03-20T08:11:37;100318.84;;;13.07;47.80
55317;BME280;41178;48.956;8.130;2023-03-20T08:16:38;100328.78;;;12.62;49.07
55317;BME280;41178;48.956;8.130;2023-03-20T08:21:40;100379.22;;;13.77;47.34
55317;BME280;41178;48.956;8.130;2023-03-20T08:26:42;100367.75;;;13.69;47.31
55317;BME280;41178;48.956;8.130;2023-03-20T08:31:45;100348.13;;;13.02;48.04
55317;BME280;41178;48.956;8.130;2023-03-20T08:36:46;100373.50;;;13.65;47.12
55317;BME280;41178;48.956;8.130;2023-03-20T08:41:48;100311.56;;;12.03;49.07
55317;BME280;41178;48.956;8.130;2023-03-20T08:46:49;100338.63;;;12.46;49.08
55317;BME280;41178;48.956;8.130;2023-03-20T08:51:51;100386.63;;;13.54;47.45
55317;BME280;41178;48.956;8.130;2023-03-20T08:56:53;100377.66;;;13.46;47.17
55317;BME280;41178;48.956;8.130;2023-03-20T09:01:54;100401.66;;;14.28;46.78
55317;BME280;41178;48.956;8.130;2023-03-20T09:06:56;100352.97;;;13.43;47.23
55317;BME280;41178;48.956;8.130;2023-03-20T09:11:59;100303.41;;;12.49;47.54
55317;BME280;41178;48.956;8.130;2023-03-20T09:17:01;100338.13;;;12.66;47.36
55317;BME280;41178;48.956;8.130;2023-03-20T09:22:04;100360.19;;;13.57;46.42
55317;BME280;41178;48.956;8.130;2023-03-20T09:27:05;100374.53;;;13.86;46.45
55317;BME280;41178;48.956;8.130;2023-03-20T09:32:10;100392.91;;;14.19;45.60
55317;BME280;41178;48.956;8.130;2023-03-20T09:37:12;100388.91;;;14.15;44.27
55317;BME280;41178;48.956;8.130;2023-03-20T09:42:29;100324.47;;;11.99;47.47
55317;BME280;41178;48.956;8.130;2023-03-20T09:53:23;100343.44;;;13.40;45.05
55317;BME280;41178;48.956;8.130;2023-03-20T09:58:30;100408.03;;;14.76;44.44
55317;BME280;41178;48.956;8.130;2023-03-20T10:03:52;100313.84;;;13.55;44.41
55317;BME280;41178;48.956;8.130;2023-03-20T10:08:56;100287.50;;;13.29;43.78
55317;BME280;41178;48.956;8.130;2023-03-20T10:40:41;100293.19;;;15.04;42.14
55317;BME280;41178;48.956;8.130;2023-03-20T10:45:47;100307.31;;;15.12;42.16
55317;BME280;41178;48.956;8.130;2023-03-20T10:50:53;100261.97;;;13.61;42.15
55317;BME280;41178;48.956;8.130;2023-03-20T10:56:00;100295.13;;;13.47;43.54
55317;BME280;41178;48.956;8.130;2023-03-20T11:06:45;100357.25;;;10.93;48.21
55317;BME280;41178;48.956;8.130;2023-03-20T11:11:51;100334.03;;;11.79;46.91
55317;BME280;41178;48.956;8.130;2023-03-20T11:16:54;100336.81;;;13.21;44.59
55317;BME280;41178;48.956;8.130;2023-03-20T11:21:59;100324.22;;;11.71;46.15
55317;BME280;41178;48.956;8.130;2023-03-20T11:27:23;100294.97;;;11.85;45.40
55317;BME280;41178;48.956;8.130;2023-03-20T11:37:34;100310.69;;;13.73;44.12
55317;BME280;41178;48.956;8.130;2023-03-20T11:42:36;100328.66;;;14.44;42.70
55317;BME280;41178;48.956;8.130;2023-03-20T11:47:37;100295.06;;;13.83;43.52
55317;BME280;41178;48.956;8.130;2023-03-20T11:52:40;100295.53;;;13.65;43.53
55317;BME280;41178;48.956;8.130;2023-03-20T11:57:42;100287.25;;;12.05;44.74
55317;BME280;41178;48.956;8.130;2023-03-20T12:02:47;100293.31;;;13.33;43.13
55317;BME280;41178;48.956;8.130;2023-03-20T12:07:50;100283.13;;;13.93;41.47
55317;BME280;41178;48.956;8.130;2023-03-20T12:13:13;100288.19;;;14.02;41.78
55317;BME280;41178;48.956;8.130;2023-03-20T12:34:41;100236.13;;;14.17;39.95
55317;BME280;41178;48.956;8.130;2023-03-20T12:50:18;100226.84;;;13.91;40.42
55317;BME280;41178;48.956;8.130;2023-03-20T13:01:20;100198.28;;;14.60;39.88
55317;BME280;41178;48.956;8.130;2023-03-20T13:06:51;100220.50;;;15.64;39.26
55317;BME280;41178;48.956;8.130;2023-03-20T13:17:08;100178.75;;;13.81;41.00
55317;BME280;41178;48.956;8.130;2023-03-20T13:22:18;100156.75;;;14.34;40.26
55317;BME280;41178;48.956;8.130;2023-03-20T13:27:35;100159.38;;;14.21;40.80
55317;BME280;41178;48.956;8.130;2023-03-20T13:38:20;100142.25;;;14.35;40.37
55317;BME280;41178;48.956;8.130;2023-03-20T13:43:46;100139.66;;;14.69;39.68
55317;BME280;41178;48.956;8.130;2023-03-20T13:48:50;100141.84;;;13.69;40.83
55317;BME280;41178;48.956;8.130;2023-03-20T14:04:45;100079.34;;;12.88;40.98
55317;BME280;41178;48.956;8.130;2023-03-20T14:09:53;100099.69;;;13.76;40.13
55317;BME280;41178;48.956;8.130;2023-03-20T14:14:56;100083.31;;;13.71;40.39
55317;BME280;41178;48.956;8.130;2023-03-20T14:20:11;100051.00;;;14.74;39.69
55317;BME280;41178;48.956;8.130;2023-03-20T14:25:18;100076.53;;;14.98;39.34
55317;BME280;41178;48.956;8.130;2023-03-20T14:35:37;100066.78;;;15.30;38.47
55317;BME280;41178;48.956;8.130;2023-03-20T14:46:05;100078.78;;;14.68;39.27
55317;BME280;41178;48.956;8.130;2023-03-20T14:56:26;100041.69;;;15.23;39.69
55317;BME280;41178;48.956;8.130;2023-03-20T15:05:33;100088.00;;;11.96;43.50
55317;BME280;41178;48.956;8.130;2023-03-20T15:10:45;100048.84;;;13.18;42.44
55317;BME280;41178;48.956;8.130;2023-03-20T15:15:56;100055.44;;;13.85;42.71
55317;BME280;41178;48.956;8.130;2023-03-20T15:20:58;100060.94;;;12.27;43.25
55317;BME280;41178;48.956;8.130;2023-03-20T15:25:59;100071.22;;;12.24;44.20
55317;BME280;41178;48.956;8.130;2023-03-20T15:31:01;100067.47;;;12.98;42.64
55317;BME280;41178;48.956;8.130;2023-03-20T15:36:15;100049.94;;;14.55;41.58
55317;BME280;41178;48.956;8.130;2023-03-20T15:41:29;100064.22;;;12.81;42.61
55317;BME280;41178;48.956;8.130;2023-03-20T15:46:32;100057.81;;;13.03;42.14
55317;BME280;41178;48.956;8.130;2023-03-20T15:51:34;100066.00;;;13.45;41.74
55317;BME280;41178;48.956;8.130;2023-03-20T15:56:37;100049.28;;;14.33;41.31
55317;BME280;41178;48.956;8.130;2023-03-20T16:01:45;100042.38;;;13.12;41.98
55317;BME280;41178;48.956;8.130;2023-03-20T16:06:56;100050.56;;;13.04;42.49
55317;BME280;41178;48.956;8.130;2023-03-20T16:12:02;100011.13;;;14.16;41.62
55317;BME280;41178;48.956;8.130;2023-03-20T16:17:04;100024.88;;;13.93;41.40
55317;BME280;41178;48.956;8.130;2023-03-20T16:27:28;100011.41;;;13.86;41.70
55317;BME280;41178;48.956;8.130;2023-03-20T16:32:37;100023.38;;;14.38;41.38
55317;BME280;41178;48.956;8.130;2023-03-20T16:37:47;100017.81;;;13.43;41.78
55317;BME280;41178;48.956;8.130;2023-03-20T16:42:50;100012.16;;;14.21;41.73
55317;BME280;41178;48.956;8.130;2023-03-20T16:53:15;100013.19;;;14.07;41.74
55317;BME280;41178;48.956;8.130;2023-03-20T16:58:22;100010.00;;;14.03;42.15
55317;BME280;41178;48.956;8.130;2023-03-20T17:03:30;99992.72;;;13.71;42.06
55317;BME280;41178;48.956;8.130;2023-03-20T17:08:39;100003.72;;;14.31;41.75
55317;BME280;41178;48.956;8.130;2023-03-20T17:13:42;100010.25;;;13.60;41.90
55317;BME280;41178;48.956;8.130;2023-03-20T17:18:45;100022.16;;;14.34;41.28
55317;BME280;41178;48.956;8.130;2023-03-20T17:23:47;100014.31;;;14.46;40.95
55317;BME280;41178;48.956;8.130;2023-03-20T17:28:49;100012.59;;;14.25;41.69
55317;BME280;41178;48.956;8.130;2023-03-20T17:33:51;100014.53;;;13.96;41.86
55317;BME280;41178;48.956;8.130;2023-03-20T17:38:54;100025.84;;;13.37;42.58
55317;BME280;41178;48.956;8.130;2023-03-20T17:43:55;100014.31;;;14.46;41.21
55317;BME280;41178;48.956;8.130;2023-03-20T17:49:02;100021.72;;;14.44;41.31
55317;BME280;41178;48.956;8.130;2023-03-20T17:54:04;100048.97;;;13.38;43.15
55317;BME280;41178;48.956;8.130;2023-03-20T17:59:08;100037.63;;;14.12;42.22
55317;BME280;41178;48.956;8.130;2023-03-20T18:04:13;100033.19;;;14.59;41.21
55317;BME280;41178;48.956;8.130;2023-03-20T18:09:14;100043.84;;;13.78;42.00
55317;BME280;41178;48.956;8.130;2023-03-20T18:14:16;100029.25;;;14.75;40.52
55317;BME280;41178;48.956;8.130;2023-03-20T18:19:23;100030.94;;;13.66;41.43
55317;BME280;41178;48.956;8.130;2023-03-20T18:24:26;100038.50;;;13.84;41.72
55317;BME280;41178;48.956;8.130;2023-03-20T18:29:27;99997.94;;;13.09;42.17
55317;BME280;41178;48.956;8.130;2023-03-20T18:34:29;100034.34;;;14.30;41.50
55317;BME280;41178;48.956;8.130;2023-03-20T18:39:31;100009.22;;;14.10;41.00
55317;BME280;41178;48.956;8.130;2023-03-20T18:44:33;99997.31;;;14.66;40.91
55317;BME280;41178;48.956;8.130;2023-03-20T18:49:34;100002.28;;;14.55;41.10
55317;BME280;41178;48.956;8.130;2023-03-20T18:54:39;100018.44;;;15.42;40.51
55317;BME280;41178;48.956;8.130;2023-03-20T18:59:41;100007.97;;;13.57;42.44
55317;BME280;41178;48.956;8.130;2023-03-20T19:04:43;99982.81;;;12.52;43.45
55317;BME280;41178;48.956;8.130;2023-03-20T19:09:44;100022.91;;;13.32;42.82
55317;BME280;41178;48.956;8.130;2023-03-20T19:14:46;99996.53;;;14.85;40.75
55317;BME280;41178;48.956;8.130;2023-03-20T19:19:48;100034.03;;;14.05;41.75
55317;BME280;41178;48.956;8.130;2023-03-20T19:24:49;100026.34;;;15.30;40.27
55317;BME280;41178;48.956;8.130;2023-03-20T19:29:51;99993.56;;;14.40;41.18
55317;BME280;41178;48.956;8.130;2023-03-20T19:34:57;100038.25;;;14.21;41.72
55317;BME280;41178;48.956;8.130;2023-03-20T19:40:35;100010.19;;;15.17;40.18
55317;BME280;41178;48.956;8.130;2023-03-20T19:45:43;100013.94;;;15.09;39.92
55317;BME280;41178;48.956;8.130;2023-03-20T19:50:46;100012.78;;;14.24;41.64
55317;BME280;41178;48.956;8.130;2023-03-20T19:55:49;99984.03;;;15.31;39.79
55317;BME280;41178;48.956;8.130;2023-03-20T20:00:51;100035.63;;;16.84;37.99
55317;BME280;41178;48.956;8.130;2023-03-20T20:06:12;100000.06;;;16.30;38.71
55317;BME280;41178;48.956;8.130;2023-03-20T20:11:16;99977.97;;;16.01;39.64
55317;BME280;41178;48.956;8.130;2023-03-20T20:16:18;100010.13;;;17.48;38.66
55317;BME280;41178;48.956;8.130;2023-03-20T20:21:20;99941.91;;;16.34;39.96
55317;BME280;41178;48.956;8.130;2023-03-20T20:26:42;99927.22;;;16.23;40.90
55317;BME280;41178;48.956;8.130;2023-03-20T20:31:54;99935.69;;;15.36;41.52
55317;BME280;41178;48.956;8.130;2023-03-20T20:36:56;99929.03;;;15.91;40.07
55317;BME280;41178;48.956;8.130;2023-03-20T20:42:18;99926.03;;;15.15;40.78
55317;BME280;41178;48.956;8.130;2023-03-20T20:47:21;99907.72;;;15.37;40.87
55317;BME280;41178;48.956;8.130;2023-03-20T20:52:22;99912.56;;;15.15;40.22
55317;BME280;41178;48.956;8.130;2023-03-20T20:57:24;99915.00;;;14.03;41.62
55317;BME280;41178;48.956;8.130;2023-03-20T21:02:28;99950.81;;;16.85;38.76
55317;BME280;41178;48.956;8.130;2023-03-20T21:07:30;99941.53;;;16.80;38.46
55317;BME280;41178;48.956;8.130;2023-03-20T21:12:32;99949.31;;;17.14;37.83
55317;BME280;41178;48.956;8.130;2023-03-20T21:17:48;99952.50;;;15.38;39.56
55317;BME280;41178;48.956;8.130;2023-03-20T21:23:01;99954.06;;;16.68;38.52
55317;BME280;41178;48.956;8.130;2023-03-20T21:28:03;99933.25;;;16.50;38.34
55317;BME280;41178;48.956;8.130;2023-03-20T21:33:05;99940.56;;;16.43;38.43
55317;BME280;41178;48.956;8.130;2023-03-20T21:38:07;99948.47;;;16.70;38.31
55317;BME280;41178;48.956;8.130;2023-03-20T21:43:28;99943.09;;;16.38;38.74
55317;BME280;41178;48.956;8.130;2023-03-20T21:48:30;99914.38;;;15.80;39.10
55317;BME280;41178;48.956;8.130;2023-03-20T21:53:51;99918.13;;;15.27;41.17
55317;BME280;41178;48.956;8.130;2023-03-20T21:59:13;99921.16;;;15.89;40.29
55317;BME280;41178;48.956;8.130;2023-03-20T22:04:35;99900.50;;;15.76;39.63
55317;BME280;41178;48.956;8.130;2023-03-20T22:09:56;99886.94;;;14.26;42.10
55317;BME280;41178;48.956;8.130;2023-03-20T22:15:19;99932.69;;;16.67;39.12
55317;BME280;41178;48.956;8.130;2023-03-20T22:20:41;99911.81;;;16.23;39.23
55317;BME280;41178;48.956;8.130;2023-03-20T22:26:05;99921.03;;;16.91;38.32
55317;BME280;41178;48.956;8.130;2023-03-20T22:31:27;99915.09;;;16.83;38.39
55317;BME280;41178;48.956;8.130;2023-03-20T22:36:49;99923.06;;;16.52;38.75
55317;BME280;41178;48.956;8.130;2023-03-20T22:42:11;99912.78;;;16.04;39.87
55317;BME280;41178;48.956;8.130;2023-03-20T22:47:34;99933.88;;;15.82;39.68
55317;BME280;41178;48.956;8.130;2023-03-20T22:52:35;99908.34;;;15.84;39.23
55317;BME280;41178;48.956;8.130;2023-03-20T22:57:50;99933.81;;;15.37;39.95
55317;BME280;41178;48.956;8.130;2023-03-20T23:03:08;99915.28;;;15.54;39.24
55317;BME280;41178;48.956;8.130;2023-03-20T23:08:30;99899.88;;;16.06;38.78
55317;BME280;41178;48.956;8.130;2023-03-20T23:13:39;99885.66;;;14.68;40.21
55317;BME280;41178;48.956;8.130;2023-03-20T23:18:42;99892.09;;;14.61;40.14
55317;BME280;41178;48.956;8.130;2023-03-20T23:23:43;99853.94;;;13.70;41.35
55317;BME280;41178;48.956;8.130;2023-03-20T23:28:46;99899.84;;;15.36;39.50
55317;BME280;41178;48.956;8.130;2023-03-20T23:33:53;99909.28;;;15.65;39.40
55317;BME280;41178;48.956;8.130;2023-03-20T23:38:55;99887.72;;;14.93;39.49
55317;BME280;41178;48.956;8.130;2023-03-20T23:43:57;99913.63;;;14.27;40.99
55317;BME280;41178;48.956;8.130;2023-03-20T23:48:59;99908.25;;;14.61;40.33
55317;BME280;41178;48.956;8.130;2023-03-20T23:54:00;99887.78;;;15.38;39.59
55317;BME280;41178;48.956;8.130;2023-03-20T23:59:02;99892.53;;;15.43;39.57
